Time;durP1;ratioP1;P1;durP2;ratioP2;P2;SDS_P1;SDS_P2;PMS_P1;PMS_P2;Temp;Humidity;BMP_temperature;BMP_pressure;BME280_temperature;BME280_humidity;BME280_pressure;Samples;Min_cycle;Max_cycle;Signal;HPM_P1;HPM_P2
2022/07/29 00:00:09;;;;;;;;;5.00;5.00;;;;;23.59;34.83;101137.00;5021759;28;45213;-61
2022/07/29 00:02:35;;;;;;;;;5.75;5.00;;;;;23.56;35.14;101134.56;5020544;28;46114;-62
2022/07/29 00:05:01;;;;;;;;;5.75;5.00;;;;;23.52;35.32;101131.19;5022396;28;45288;-62
2022/07/29 00:07:26;;;;;;;;;4.75;4.75;;;;;23.47;35.04;101126.16;5021206;28;45386;-62
2022/07/29 00:09:52;;;;;;;;;7.00;6.00;;;;;23.49;34.83;101128.75;5020723;28;45406;-61
2022/07/29 00:12:18;;;;;;;;;7.25;5.00;;;;;23.42;34.97;101119.31;5021875;28;45371;-61
2022/07/29 00:14:43;;;;;;;;;7.00;5.00;;;;;23.38;34.79;101115.13;5013367;28;45388;-62
2022/07/29 00:17:08;;;;;;;;;4.00;4.00;;;;;23.37;34.55;101114.25;5016885;28;45392;-62
2022/07/29 00:19:34;;;;;;;;;4.75;4.75;;;;;23.39;34.80;101114.09;5022135;28;45296;-61
2022/07/29 00:22:00;;;;;;;;;5.75;4.50;;;;;23.36;35.03;101104.34;5021055;28;45371;-62
2022/07/29 00:24:25;;;;;;;;;8.00;6.00;;;;;23.38;34.25;101104.22;5021190;28;45345;-62
2022/07/29 00:26:50;;;;;;;;;4.75;4.00;;;;;23.35;34.61;101097.16;5019761;28;45601;-62
2022/07/29 00:29:16;;;;;;;;;5.75;4.75;;;;;23.28;34.75;101085.88;5021754;28;54915;-61
2022/07/29 00:31:41;;;;;;;;;5.25;5.25;;;;;23.35;34.65;101097.16;5021336;28;46045;-61
2022/07/29 00:35:43;;;;;;;;;3.50;3.00;;;;;23.34;35.05;101097.28;5022164;28;45288;-61
2022/07/29 00:36:52;;;;;;;;;6.00;5.00;;;;;23.29;35.01;101082.19;5020946;28;45310;-61
2022/07/29 00:39:17;;;;;;;;;5.25;5.00;;;;;23.29;34.80;101093.06;5021804;28;45471;-62
2022/07/29 00:41:42;;;;;;;;;5.25;4.00;;;;;23.28;35.62;101098.66;5021411;28;54103;-61
2022/07/29 00:44:07;;;;;;;;;6.25;5.00;;;;;23.27;35.34;101091.44;5021780;28;45276;-61
2022/07/29 00:46:33;;;;;;;;;4.50;4.50;;;;;23.26;35.45;101092.47;5019669;28;46519;-61
2022/07/29 00:48:58;;;;;;;;;5.25;5.25;;;;;23.22;35.51;101086.41;5020867;28;46432;-61
2022/07/29 00:51:26;;;;;;;;;4.75;4.75;;;;;23.22;35.62;101089.13;5014799;28;46084;-61
2022/07/29 00:53:52;;;;;;;;;5.00;5.00;;;;;23.24;35.98;101100.75;5021303;28;45466;-62
2022/07/29 00:56:18;;;;;;;;;6.00;5.00;;;;;23.23;35.66;101096.28;5020464;28;45317;-61
2022/07/29 00:58:46;;;;;;;;;6.00;5.00;;;;;23.20;35.61;101091.06;5021488;28;45481;-61
2022/07/29 01:01:11;;;;;;;;;6.00;5.00;;;;;23.18;35.90;101084.03;5020476;28;45406;-61
2022/07/29 01:03:36;;;;;;;;;6.50;6.00;;;;;23.11;35.97;101075.50;5021285;28;45362;-62
2022/07/29 01:06:02;;;;;;;;;4.25;4.00;;;;;23.17;35.91;101088.63;5016444;28;45463;-61
2022/07/29 01:08:27;;;;;;;;;5.75;5.75;;;;;23.15;36.34;101082.41;5020315;28;45491;-61
2022/07/29 01:10:53;;;;;;;;;4.25;4.25;;;;;23.11;36.03;101084.53;5021586;28;45297;-61
2022/07/29 01:13:19;;;;;;;;;4.00;4.00;;;;;23.11;36.48;101084.53;5020574;28;46805;-61
2022/07/29 01:15:49;;;;;;;;;6.00;5.00;;;;;23.08;36.27;101087.47;5020370;28;45299;-61
2022/07/29 01:18:20;;;;;;;;;5.25;4.50;;;;;23.05;36.46;101086.84;5019606;28;45494;-61
2022/07/29 01:21:23;;;;;;;;;5.00;5.00;;;;;23.01;36.53;101086.22;5019154;28;45729;-61
2022/07/29 01:24:10;;;;;;;;;6.75;5.00;;;;;23.01;36.74;101082.63;5011164;28;45451;-61
2022/07/29 01:26:46;;;;;;;;;6.00;4.00;;;;;22.98;36.97;101089.19;5020842;28;45497;-62
2022/07/29 01:29:29;;;;;;;;;5.75;5.75;;;;;22.97;36.85;101102.91;5020739;28;45317;-61
2022/07/29 01:32:04;;;;;;;;;6.00;5.00;;;;;22.95;36.86;101100.31;5008279;28;46219;-61
2022/07/29 01:34:42;;;;;;;;;7.50;5.25;;;;;22.91;36.94;101093.38;5020980;28;45332;-61
2022/07/29 01:37:48;;;;;;;;;4.75;4.50;;;;;22.90;37.17;101106.13;5021102;28;45311;-61
2022/07/29 01:40:26;;;;;;;;;4.75;4.75;;;;;22.87;37.38;101098.22;5014432;28;46315;-61
2022/07/29 01:42:55;;;;;;;;;5.00;5.00;;;;;22.86;37.39;101095.59;5019768;28;45398;-62
2022/07/29 01:45:38;;;;;;;;;8.50;5.50;;;;;22.82;37.18;101089.53;5019880;28;45365;-61
2022/07/29 01:48:15;;;;;;;;;4.00;4.00;;;;;22.83;36.84;101101.28;5019463;28;45421;-62
2022/07/29 01:50:48;;;;;;;;;6.00;5.25;;;;;22.79;36.97;101091.59;5012160;28;46071;-61
2022/07/29 01:53:25;;;;;;;;;5.25;5.00;;;;;22.76;37.13;101100.91;5008364;28;46312;-61
2022/07/29 01:55:52;;;;;;;;;5.00;5.00;;;;;22.70;37.16;101090.47;5019743;28;45659;-61
2022/07/29 01:58:19;;;;;;;;;5.75;5.75;;;;;22.64;37.50;101093.72;5020368;28;45542;-61
2022/07/29 02:00:46;;;;;;;;;5.00;5.00;;;;;22.68;37.33;101101.47;5019906;28;45309;-62
2022/07/29 02:03:14;;;;;;;;;7.75;5.00;;;;;22.68;38.06;101101.47;5018257;28;46439;-61
2022/07/29 02:05:43;;;;;;;;;6.00;6.00;;;;;22.66;37.75;101108.06;5019323;28;45565;-62
2022/07/29 02:08:11;;;;;;;;;5.00;4.75;;;;;22.63;37.91;101103.69;5020784;28;45383;-61
2022/07/29 02:10:38;;;;;;;;;4.00;4.00;;;;;22.62;37.55;101106.53;5018642;28;45446;-61
2022/07/29 02:13:06;;;;;;;;;5.00;5.00;;;;;22.59;38.08;101102.22;5019423;28;47156;-61
2022/07/29 02:15:34;;;;;;;;;4.75;4.75;;;;;22.57;38.37;101102.34;5019003;28;46394;-62
2022/07/29 02:18:14;;;;;;;;;6.00;6.00;;;;;22.54;38.34;101101.72;5019124;28;45445;-61
2022/07/29 02:20:45;;;;;;;;;7.25;7.00;;;;;22.52;38.29;101101.81;5015053;28;45222;-61
2022/07/29 02:23:14;;;;;;;;;2.00;2.00;;;;;22.52;38.53;101100.94;5019935;28;46338;-61
2022/07/29 02:25:41;;;;;;;;;7.00;6.25;;;;;22.50;38.14;101103.81;5020322;28;45233;-61
2022/07/29 02:28:07;;;;;;;;;6.75;5.75;;;;;22.49;38.48;101101.19;5019166;28;45351;-61
2022/07/29 02:30:36;;;;;;;;;8.25;6.75;;;;;22.44;38.68;101098.81;5019774;28;45522;-62
2022/07/29 02:33:03;;;;;;;;;5.50;5.50;;;;;22.46;38.41;101101.44;5019769;28;46555;-62
2022/07/29 02:35:29;;;;;;;;;6.25;5.75;;;;;22.43;38.60;101102.50;5019970;28;45447;-62
2022/07/29 02:40:42;;;;;;;;;6.75;6.75;;;;;22.36;39.22;101098.53;5019898;28;45441;-61
2022/07/29 02:43:10;;;;;;;;;8.00;7.75;;;;;22.35;38.75;101105.84;5019645;28;45392;-61
2022/07/29 02:45:36;;;;;;;;;6.25;6.25;;;;;22.31;39.15;101100.75;5018656;28;45628;-62
2022/07/29 02:48:09;;;;;;;;;7.00;6.50;;;;;22.34;39.35;101103.25;5017137;28;47009;-61
2022/07/29 02:50:41;;;;;;;;;6.75;6.75;;;;;22.27;39.55;101093.75;5010913;28;45399;-61
2022/07/29 02:53:17;;;;;;;;;7.50;6.00;;;;;22.32;39.47;101105.19;5006595;28;46126;-61
2022/07/29 02:55:45;;;;;;;;;6.75;6.00;;;;;22.32;39.23;101105.19;5019475;28;45334;-61
2022/07/29 02:58:22;;;;;;;;;7.00;7.00;;;;;22.31;39.31;101108.91;5019060;28;45236;-62
2022/07/29 03:00:51;;;;;;;;;7.25;6.75;;;;;22.29;39.48;101102.72;5019558;28;45245;-61
2022/07/29 03:03:18;;;;;;;;;7.75;7.00;;;;;22.28;39.87;101103.66;5019431;28;46168;-61
2022/07/29 03:05:43;;;;;;;;;7.00;7.00;;;;;22.28;39.69;101112.72;5019290;28;45474;-61
2022/07/29 03:08:11;;;;;;;;;8.00;7.75;;;;;22.27;39.82;101113.69;5019247;28;45346;-61
2022/07/29 03:10:38;;;;;;;;;9.00;7.75;;;;;22.21;39.54;101106.84;5018894;28;45450;-61
2022/07/29 03:13:05;;;;;;;;;5.25;5.25;;;;;22.26;39.83;101114.66;5018017;28;47264;-61
2022/07/29 03:15:31;;;;;;;;;8.00;8.00;;;;;22.23;39.55;101112.16;5018130;28;45612;-61
2022/07/29 03:17:58;;;;;;;;;7.50;7.25;;;;;22.24;39.89;101129.38;5018519;28;45381;-61
2022/07/29 03:20:24;;;;;;;;;7.25;7.25;;;;;22.18;40.03;101120.66;5019468;28;45493;-61
2022/07/29 03:22:50;;;;;;;;;4.50;3.25;;;;;22.17;40.00;101127.09;5019938;28;45618;-61
2022/07/29 03:25:20;;;;;;;;;10.00;8.75;;;;;22.17;40.05;101124.38;5022969;28;45254;-62
2022/07/29 03:27:46;;;;;;;;;7.50;7.00;;;;;22.17;40.00;101126.25;5021055;28;45391;-61
2022/07/29 03:30:13;;;;;;;;;7.50;7.00;;;;;22.14;40.67;101124.59;5022949;28;45462;-61
2022/07/29 03:32:39;;;;;;;;;8.00;8.00;;;;;22.14;40.74;101123.75;5020140;28;45485;-61
2022/07/29 03:35:05;;;;;;;;;8.00;7.25;;;;;22.09;40.59;101115.94;5022217;28;45607;-61
2022/07/29 03:37:33;;;;;;;;;6.25;6.25;;;;;22.11;40.91;101119.41;5021930;28;45289;-61
2022/07/29 03:40:00;;;;;;;;;7.25;6.00;;;;;22.10;40.37;101116.78;5009284;28;45399;-61
2022/07/29 03:42:30;;;;;;;;;7.25;6.50;;;;;22.06;40.33;101118.03;5022196;28;46285;-61
2022/07/29 03:44:58;;;;;;;;;8.50;8.50;;;;;22.05;40.44;101121.72;5021757;28;45635;-61
2022/07/29 03:47:27;;;;;;;;;8.25;8.00;;;;;22.02;40.51;101129.13;5016347;28;45483;-61
2022/07/29 03:49:56;;;;;;;;;7.25;7.25;;;;;22.00;40.75;101131.09;5014652;28;45405;-61
2022/07/29 03:52:22;;;;;;;;;7.00;6.00;;;;;22.00;41.18;101132.91;5022181;28;45502;-61
2022/07/29 03:54:48;;;;;;;;;10.00;7.75;;;;;22.00;41.07;101122.03;5022587;28;45378;-61
2022/07/29 03:57:15;;;;;;;;;7.00;6.75;;;;;21.98;41.00;101130.31;5021613;28;45174;-61
2022/07/29 03:59:42;;;;;;;;;7.25;7.25;;;;;21.95;41.29;101126.97;5021413;28;45427;-61
2022/07/29 04:02:10;;;;;;;;;7.25;7.25;;;;;21.96;40.87;101126.84;5022077;28;47141;-61
2022/07/29 04:04:36;;;;;;;;;9.50;8.50;;;;;21.95;41.04;101136.00;5022575;28;45229;-61
2022/07/29 04:07:02;;;;;;;;;8.00;8.00;;;;;21.97;41.48;101136.75;5021409;28;45299;-61
2022/07/29 04:09:27;;;;;;;;;8.00;8.00;;;;;21.95;41.17;101127.84;5021522;28;45414;-61
2022/07/29 04:11:53;;;;;;;;;5.25;5.25;;;;;21.96;41.07;101131.41;5021951;28;46968;-61
2022/07/29 04:14:19;;;;;;;;;7.00;7.00;;;;;21.89;41.64;101124.72;5022429;28;45527;-61
2022/07/29 04:16:44;;;;;;;;;8.00;7.75;;;;;21.95;41.18;101140.53;5020652;28;45442;-61
2022/07/29 04:19:09;;;;;;;;;9.50;9.00;;;;;21.95;41.31;101141.44;5021418;28;45388;-61
2022/07/29 04:21:41;;;;;;;;;11.00;9.75;;;;;21.93;41.91;101140.66;5021685;28;48427;-61
2022/07/29 04:24:07;;;;;;;;;7.50;7.00;;;;;21.91;41.77;101134.47;5022054;28;45444;-61
2022/07/29 04:26:33;;;;;;;;;10.00;9.25;;;;;21.91;41.93;101141.78;5020099;28;45430;-61
2022/07/29 04:28:59;;;;;;;;;8.25;8.25;;;;;21.87;42.07;101141.13;5021172;28;45485;-61
2022/07/29 04:31:24;;;;;;;;;7.50;7.50;;;;;21.86;41.72;101147.53;5021746;28;45450;-61
2022/07/29 04:33:49;;;;;;;;;10.00;9.50;;;;;21.85;42.19;101145.78;5021676;28;45327;-61
2022/07/29 04:36:14;;;;;;;;;7.50;7.50;;;;;21.84;41.93;101141.34;5020991;28;48743;-61
2022/07/29 04:38:40;;;;;;;;;10.00;10.00;;;;;21.83;42.40;101143.22;5021067;28;45456;-61
2022/07/29 04:41:06;;;;;;;;;9.00;8.75;;;;;21.79;42.50;101143.53;5021235;28;46069;-61
2022/07/29 04:43:33;;;;;;;;;12.00;8.00;;;;;21.80;42.89;101147.97;5020955;28;45403;-61
2022/07/29 04:45:59;;;;;;;;;9.00;8.50;;;;;21.81;42.18;101158.72;5018829;28;45420;-61
2022/07/29 04:48:25;;;;;;;;;10.75;9.50;;;;;21.79;42.53;101160.72;5019020;28;45550;-61
2022/07/29 04:50:50;;;;;;;;;9.00;9.00;;;;;21.79;42.98;101154.41;5012719;28;45483;-61
2022/07/29 04:53:16;;;;;;;;;10.25;8.75;;;;;21.71;42.52;101144.09;5020915;28;58090;-61
2022/07/29 04:55:41;;;;;;;;;11.00;11.00;;;;;21.75;43.23;101156.50;5021844;28;45219;-62
2022/07/29 04:58:07;;;;;;;;;7.25;7.25;;;;;21.74;43.46;101154.75;5020534;28;45288;-61
2022/07/29 05:00:33;;;;;;;;;7.00;6.00;;;;;21.72;43.13;101147.66;5020144;28;47190;-61
2022/07/29 05:02:59;;;;;;;;;8.50;8.50;;;;;21.73;43.28;101149.41;5018553;28;45321;-61
2022/07/29 05:05:24;;;;;;;;;8.50;8.50;;;;;21.72;43.39;101145.84;5021481;28;45402;-61
2022/07/29 05:07:49;;;;;;;;;9.25;7.50;;;;;21.70;42.73;101141.47;5021618;28;45283;-61
2022/07/29 05:10:15;;;;;;;;;11.00;8.25;;;;;21.75;43.09;101148.34;5020308;28;46823;-61
2022/07/29 05:12:40;;;;;;;;;6.75;6.75;;;;;21.78;43.13;101149.94;5020802;28;45376;-61
2022/07/29 05:15:06;;;;;;;;;7.00;7.00;;;;;21.77;42.83;101146.38;5011003;28;45495;-62
2022/07/29 05:17:31;;;;;;;;;6.50;6.50;;;;;21.86;43.29;101152.13;5021024;28;45488;-61
2022/07/29 05:19:56;;;;;;;;;5.25;5.25;;;;;21.88;43.07;101151.00;5020848;28;46279;-61
2022/07/29 05:22:22;;;;;;;;;6.50;6.00;;;;;21.91;43.18;101155.34;5021213;28;45349;-61
2022/07/29 05:24:47;;;;;;;;;7.00;7.00;;;;;21.83;42.88;101128.75;5021256;28;45313;-61
2022/07/29 05:27:12;;;;;;;;;5.50;5.50;;;;;21.94;42.98;101153.28;5021363;28;45504;-61
2022/07/29 05:29:38;;;;;;;;;7.75;6.25;;;;;21.98;42.50;101152.06;5021156;28;45488;-61
2022/07/29 05:32:04;;;;;;;;;7.00;7.00;;;;;22.01;42.39;101153.69;5017815;28;46962;-61
2022/07/29 05:34:29;;;;;;;;;6.00;6.00;;;;;21.96;42.28;101143.16;5020993;28;45553;-61
2022/07/29 05:36:55;;;;;;;;;10.00;6.25;;;;;22.02;41.56;101161.72;5019982;28;45501;-61
2022/07/29 05:39:20;;;;;;;;;6.00;6.00;;;;;22.02;42.17;101158.16;5020740;28;46152;-62
2022/07/29 05:41:46;;;;;;;;;6.75;6.75;;;;;22.06;41.66;101156.94;5020244;28;45415;-61
2022/07/29 05:44:13;;;;;;;;;7.00;7.00;;;;;22.09;42.16;101159.44;5019730;28;45168;-61
2022/07/29 05:46:38;;;;;;;;;7.50;6.25;;;;;22.09;42.74;101164.00;5018004;28;45430;-61
2022/07/29 05:49:04;;;;;;;;;7.25;6.75;;;;;22.09;42.39;101164.88;5016612;28;46037;-61
2022/07/29 05:51:30;;;;;;;;;6.25;6.25;;;;;22.11;42.59;101167.47;5014711;28;45450;-61
2022/07/29 05:53:55;;;;;;;;;7.00;7.00;;;;;22.10;42.01;101168.44;5020513;28;45431;-61
2022/07/29 05:56:20;;;;;;;;;8.00;6.50;;;;;22.12;41.68;101171.91;5020581;28;47645;-61
2022/07/29 05:58:46;;;;;;;;;5.25;5.25;;;;;22.12;41.79;101174.63;5004703;28;46623;-61
2022/07/29 06:01:11;;;;;;;;;7.25;7.25;;;;;22.16;42.41;101181.59;5020141;28;45514;-61
2022/07/29 06:03:37;;;;;;;;;7.75;6.75;;;;;22.17;42.79;101181.47;5020387;28;45390;-62
2022/07/29 06:06:03;;;;;;;;;7.00;7.00;;;;;22.17;42.67;101172.47;5019830;28;45301;-63
2022/07/29 06:08:28;;;;;;;;;8.25;7.25;;;;;22.20;42.74;101183.97;5020296;28;45981;-62
2022/07/29 06:10:54;;;;;;;;;7.00;7.00;;;;;22.23;42.21;101191.00;5017767;28;45245;-61
2022/07/29 06:13:19;;;;;;;;;5.75;5.75;;;;;22.25;42.01;101190.91;5009230;28;45453;-61
2022/07/29 06:15:44;;;;;;;;;7.00;7.00;;;;;22.27;42.67;101197.09;5014326;28;47926;-61
2022/07/29 06:18:10;;;;;;;;;8.00;7.00;;;;;22.27;42.35;101199.81;5020014;28;45361;-61
2022/07/29 06:20:36;;;;;;;;;6.25;6.00;;;;;22.27;41.40;101194.38;5019064;28;45249;-61
2022/07/29 06:23:04;;;;;;;;;4.75;2.50;;;;;22.31;41.86;101201.38;5018466;28;45398;-62
2022/07/29 06:25:30;;;;;;;;;5.75;5.75;;;;;22.32;41.58;101187.66;5008967;28;45332;-62
2022/07/29 06:27:55;;;;;;;;;6.00;6.00;;;;;22.35;41.30;101192.88;5018321;28;46969;-62
2022/07/29 06:30:20;;;;;;;;;4.25;4.00;;;;;22.34;41.02;101191.13;5019994;28;45433;-61
2022/07/29 06:32:46;;;;;;;;;6.25;6.25;;;;;22.40;41.25;101195.22;5012331;28;45517;-61
2022/07/29 06:35:12;;;;;;;;;4.75;4.75;;;;;22.42;40.98;101201.44;5019729;28;45331;-61
2022/07/29 06:37:37;;;;;;;;;5.00;5.00;;;;;22.43;41.74;101203.16;5018912;28;52158;-61
2022/07/29 06:42:48;;;;;;;;;9.75;9.75;;;;;22.48;41.41;101200.09;5015760;28;45418;-61
2022/07/29 06:45:13;;;;;;;;;17.00;15.25;;;;;22.48;41.14;101192.78;5018125;28;45542;-61
2022/07/29 06:47:38;;;;;;;;;7.25;7.00;;;;;22.54;41.32;101203.22;5018433;28;49737;-62
2022/07/29 06:50:04;;;;;;;;;9.50;7.00;;;;;22.54;41.02;101199.66;5011832;28;45451;-61
2022/07/29 06:52:30;;;;;;;;;7.00;6.00;;;;;22.57;41.08;101203.00;5017513;28;45467;-61
2022/07/29 06:54:55;;;;;;;;;7.50;5.75;;;;;22.58;41.30;101204.72;5017612;28;45278;-61
2022/07/29 06:57:21;;;;;;;;;6.50;6.25;;;;;22.64;41.14;101213.41;5015846;28;46227;-61
2022/07/29 06:59:47;;;;;;;;;6.00;6.00;;;;;22.66;41.05;101208.72;5017042;28;45485;-61
2022/07/29 07:02:13;;;;;;;;;9.75;7.00;;;;;22.67;40.81;101214.06;5018467;28;45595;-61
2022/07/29 07:04:38;;;;;;;;;5.50;5.50;;;;;22.63;40.34;101200.78;5015534;28;45435;-61
2022/07/29 07:07:03;;;;;;;;;9.50;6.25;;;;;22.67;40.26;101211.34;5015603;28;46323;-62
2022/07/29 07:09:29;;;;;;;;;7.50;4.75;;;;;22.67;41.33;101214.06;5018161;28;45458;-61
2022/07/29 07:11:54;;;;;;;;;7.75;6.25;;;;;22.70;40.57;101215.66;5017822;28;45279;-61
2022/07/29 07:14:19;;;;;;;;;8.00;7.00;;;;;22.73;40.37;101212.69;5012526;28;45258;-61
2022/07/29 07:16:44;;;;;;;;;7.00;6.00;;;;;22.82;41.02;101224.72;5010907;28;45365;-61
2022/07/29 07:19:10;;;;;;;;;8.75;6.25;;;;;22.81;41.08;101223.88;5013003;28;45562;-61
2022/07/29 07:21:35;;;;;;;;;6.00;6.00;;;;;22.84;40.74;101223.63;5018638;28;45407;-63
2022/07/29 07:24:00;;;;;;;;;4.75;4.75;;;;;22.87;41.35;101219.81;5018262;28;45287;-63
2022/07/29 07:26:26;;;;;;;;;9.00;8.00;;;;;22.91;41.38;101226.75;5016477;28;45467;-64
2022/07/29 07:28:52;;;;;;;;;9.00;7.00;;;;;22.95;41.20;101225.53;5018117;28;45622;-65
2022/07/29 07:31:18;;;;;;;;;6.00;6.00;;;;;22.96;41.28;101218.25;5018029;28;45404;-64
2022/07/29 07:33:43;;;;;;;;;8.75;8.75;;;;;23.01;40.84;101219.63;5018150;28;45486;-64
2022/07/29 07:36:08;;;;;;;;;7.00;7.00;;;;;23.05;40.94;101225.69;5018310;28;46212;-64
2022/07/29 07:38:34;;;;;;;;;8.00;7.50;;;;;23.11;40.14;101227.97;5016635;28;45383;-64
2022/07/29 07:41:00;;;;;;;;;5.75;5.75;;;;;23.12;39.80;101232.41;5014833;28;45377;-64
2022/07/29 07:43:26;;;;;;;;;6.50;6.25;;;;;23.14;39.59;101230.47;5015398;28;45466;-64
2022/07/29 07:45:51;;;;;;;;;6.00;5.75;;;;;23.20;39.72;101229.09;5013202;28;46821;-64
2022/07/29 07:48:16;;;;;;;;;6.50;6.00;;;;;23.22;39.60;101230.75;5014350;28;45448;-64
2022/07/29 07:50:43;;;;;;;;;7.75;7.75;;;;;23.24;39.16;101231.47;5012895;28;45557;-64
2022/07/29 07:53:08;;;;;;;;;6.50;6.25;;;;;23.26;39.27;101232.22;5013264;28;45592;-64
2022/07/29 07:55:40;;;;;;;;;12.00;9.00;;;;;23.28;40.47;101224.78;5008389;28;46369;-62
2022/07/29 07:58:05;;;;;;;;;6.50;6.00;;;;;23.35;39.83;101232.50;5015360;28;45402;-65
2022/07/29 08:00:32;;;;;;;;;6.00;6.00;;;;;23.40;39.41;101233.00;5016174;28;45813;-64
2022/07/29 08:02:57;;;;;;;;;6.00;6.00;;;;;23.45;39.94;101231.63;5017588;28;45659;-64
2022/07/29 08:05:22;;;;;;;;;7.25;6.75;;;;;23.53;40.62;101227.44;5017908;28;46093;-63
2022/07/29 08:07:48;;;;;;;;;6.00;5.25;;;;;23.61;39.16;101230.44;5016840;28;45470;-64
2022/07/29 08:13:07;;;;;;;;;7.50;6.75;;;;;23.72;39.44;101238.59;5010174;28;45344;-65
2022/07/29 08:15:33;;;;;;;;;7.25;6.25;;;;;23.77;39.25;101235.50;5006553;28;45491;-64
2022/07/29 08:17:59;;;;;;;;;7.00;5.25;;;;;23.87;38.80;101236.53;5017379;28;45452;-66
2022/07/29 08:20:25;;;;;;;;;8.75;8.25;;;;;23.93;38.53;101238.75;5018672;28;45548;-66
2022/07/29 08:22:52;;;;;;;;;6.50;5.25;;;;;23.99;38.58;101238.28;5021059;28;45550;-66
2022/07/29 08:25:20;;;;;;;;;7.25;7.00;;;;;24.07;38.37;101236.78;5019633;28;46206;-66
2022/07/29 08:27:45;;;;;;;;;7.25;5.25;;;;;24.14;38.73;101238.00;5019991;28;45494;-66
2022/07/29 08:30:11;;;;;;;;;8.25;8.00;;;;;24.20;38.60;101232.03;5019958;28;45316;-66
2022/07/29 08:32:36;;;;;;;;;6.25;6.25;;;;;24.27;38.06;101237.84;5018786;28;45380;-66
2022/07/29 08:35:01;;;;;;;;;6.50;5.25;;;;;24.30;37.81;101235.75;5018246;28;46035;-66
2022/07/29 08:37:27;;;;;;;;;8.50;7.00;;;;;24.35;37.59;101236.22;5020665;28;45344;-66
2022/07/29 08:39:52;;;;;;;;;11.75;8.00;;;;;24.38;37.47;101235.97;5018575;28;46655;-65
2022/07/29 08:42:17;;;;;;;;;7.00;5.25;;;;;24.48;37.50;101243.41;5021104;28;45491;-65
2022/07/29 08:44:43;;;;;;;;;4.50;4.50;;;;;24.51;38.09;101240.44;5010243;28;45495;-66
2022/07/29 08:47:08;;;;;;;;;7.00;7.00;;;;;24.54;37.39;101234.69;5020123;28;45720;-63
2022/07/29 08:49:35;;;;;;;;;7.00;7.00;;;;;24.64;37.14;101246.63;5012537;28;45331;-62
2022/07/29 08:52:01;;;;;;;;;5.00;5.00;;;;;24.65;36.84;101240.16;5019545;28;45382;-63
2022/07/29 08:54:27;;;;;;;;;5.00;5.00;;;;;24.70;37.05;101237.91;5020676;28;46207;-62
2022/07/29 08:56:54;;;;;;;;;7.00;7.00;;;;;24.77;37.41;101239.13;5020054;28;45397;-63
2022/07/29 08:59:21;;;;;;;;;4.50;3.25;;;;;24.81;36.48;101238.84;5019444;28;45462;-63
2022/07/29 09:01:48;;;;;;;;;6.75;6.00;;;;;24.83;36.53;101242.34;5007071;28;45440;-62
2022/07/29 09:04:15;;;;;;;;;7.75;7.25;;;;;24.86;36.66;101242.94;5020013;28;46180;-62
2022/07/29 09:06:47;;;;;;;;;9.00;6.00;;;;;24.89;36.56;101237.22;5020508;28;45449;-62
2022/07/29 09:09:13;;;;;;;;;9.50;7.00;;;;;24.92;36.48;101236.94;5019242;28;45398;-62
2022/07/29 09:11:40;;;;;;;;;5.25;4.00;;;;;24.94;36.53;101240.41;5019890;28;45471;-63
2022/07/29 09:14:06;;;;;;;;;7.25;6.25;;;;;24.95;36.62;101236.66;5017897;28;46228;-62
2022/07/29 09:16:48;;;;;;;;;4.00;4.00;;;;;24.96;36.47;101232.97;5020277;28;45821;-62
2022/07/29 09:19:21;;;;;;;;;3.00;3.00;;;;;24.96;35.46;101237.56;5019720;28;45338;-62
2022/07/29 09:21:58;;;;;;;;;4.00;4.00;;;;;25.01;36.19;101234.41;5019642;28;45661;-62
2022/07/29 09:24:39;;;;;;;;;3.00;3.00;;;;;25.04;36.19;101235.03;5020059;28;45317;-62
2022/07/29 09:27:31;;;;;;;;;4.75;4.00;;;;;25.11;36.53;101227.19;5018240;28;45442;-62
2022/07/29 09:30:10;;;;;;;;;10.00;8.50;;;;;25.15;35.24;101234.94;5019193;28;45594;-63
2022/07/29 09:32:56;;;;;;;;;3.00;3.00;;;;;25.17;35.55;101229.38;5017905;28;45320;-62
2022/07/29 09:35:23;;;;;;;;;2.25;1.75;;;;;25.20;35.23;101233.72;5019725;28;47075;-63
2022/07/29 09:37:49;;;;;;;;;3.25;2.75;;;;;25.22;35.83;101229.81;5017753;28;45828;-62
2022/07/29 09:40:20;;;;;;;;;4.75;3.00;;;;;25.30;35.63;101229.19;5018688;28;45350;-62
2022/07/29 09:42:46;;;;;;;;;4.25;4.25;;;;;25.32;35.31;101235.41;5019934;28;45440;-62
2022/07/29 09:45:12;;;;;;;;;3.00;3.00;;;;;25.35;35.49;101237.88;5006556;28;45650;-62
2022/07/29 09:47:46;;;;;;;;;3.50;3.50;;;;;25.39;35.49;101236.56;5018716;28;45364;-63
2022/07/29 09:50:12;;;;;;;;;3.00;3.00;;;;;25.39;35.03;101225.66;5010768;28;45428;-62
2022/07/29 09:52:51;;;;;;;;;2.50;2.50;;;;;25.45;35.43;101227.00;5019453;28;45407;-62
2022/07/29 09:55:17;;;;;;;;;4.25;4.25;;;;;25.48;35.20;101234.94;5019153;28;46219;-62
2022/07/29 09:57:43;;;;;;;;;5.00;4.00;;;;;25.50;35.07;101220.13;5017493;28;45684;-65
2022/07/29 10:00:13;;;;;;;;;4.00;4.00;;;;;25.52;35.19;101231.78;5019036;28;45483;-65
2022/07/29 10:02:40;;;;;;;;;5.50;2.75;;;;;25.52;35.66;101231.78;5019285;28;45513;-65
2022/07/29 10:05:23;;;;;;;;;4.75;4.00;;;;;25.59;35.62;101223.03;5009722;28;46044;-65
2022/07/29 10:07:54;;;;;;;;;4.00;4.00;;;;;25.60;34.24;101216.56;5012968;28;45403;-62
2022/07/29 10:10:22;;;;;;;;;3.50;3.50;;;;;25.66;34.68;101224.22;5016363;28;47102;-62
2022/07/29 10:12:50;;;;;;;;;4.25;4.25;;;;;25.70;34.89;101223.81;5018400;28;45434;-62
2022/07/29 10:15:15;;;;;;;;;5.00;5.00;;;;;25.77;35.31;101229.59;5016344;28;46277;-63
2022/07/29 10:17:41;;;;;;;;;5.25;4.00;;;;;25.80;34.81;101232.06;5018264;28;45564;-63
2022/07/29 10:20:08;;;;;;;;;4.75;4.00;;;;;25.84;34.66;101241.75;5019132;28;45770;-63
2022/07/29 10:22:33;;;;;;;;;6.50;5.25;;;;;25.84;34.11;101236.28;5018938;28;45696;-62
2022/07/29 10:24:59;;;;;;;;;2.50;2.25;;;;;25.86;34.54;101228.78;5015662;28;45648;-63
2022/07/29 10:27:24;;;;;;;;;3.25;3.25;;;;;25.91;35.02;101230.22;5018208;28;45482;-63
2022/07/29 10:29:50;;;;;;;;;4.00;4.00;;;;;25.96;34.68;101231.59;5018772;28;45682;-63
2022/07/29 10:32:40;;;;;;;;;4.00;4.00;;;;;25.99;34.25;101234.03;5014696;28;45366;-63
2022/07/29 10:35:27;;;;;;;;;5.00;3.25;;;;;26.03;34.04;101237.38;5019110;28;45379;-63
2022/07/29 10:38:12;;;;;;;;;3.00;3.00;;;;;26.04;34.87;101225.41;5018096;28;45407;-63
2022/07/29 10:43:44;;;;;;;;;4.00;4.00;;;;;26.12;33.32;101241.16;5011559;28;46100;-63
2022/07/29 10:46:11;;;;;;;;;4.50;3.75;;;;;26.15;34.45;101239.00;5018338;28;46420;-63
2022/07/29 10:49:07;;;;;;;;;5.50;4.50;;;;;26.19;33.84;101245.91;5018153;28;45380;-62
2022/07/29 10:51:54;;;;;;;;;5.25;5.25;;;;;26.23;34.39;101238.31;5007578;28;45253;-62
2022/07/29 10:54:37;;;;;;;;;5.25;4.00;;;;;26.24;33.91;101238.19;5010517;28;45428;-63
2022/07/29 10:57:22;;;;;;;;;4.00;3.00;;;;;26.24;33.93;101231.81;5010361;28;47027;-63
2022/07/29 11:00:14;;;;;;;;;6.00;6.00;;;;;26.25;33.87;101237.16;5014528;28;45424;-65
2022/07/29 11:02:39;;;;;;;;;4.25;4.00;;;;;26.28;34.45;101238.75;5012959;28;45668;-65
2022/07/29 11:05:17;;;;;;;;;3.50;3.50;;;;;26.33;33.49;101246.53;5014627;28;45808;-65
2022/07/29 11:08:13;;;;;;;;;4.00;3.25;;;;;26.36;33.89;101235.28;5014724;28;46455;-63
2022/07/29 11:10:40;;;;;;;;;3.00;3.00;;;;;26.41;33.52;101230.25;5005605;28;45791;-63
2022/07/29 11:13:05;;;;;;;;;3.00;3.00;;;;;26.43;33.42;101234.59;5005369;28;45403;-63
2022/07/29 11:15:53;;;;;;;;;5.75;3.75;;;;;26.47;33.15;101235.19;5019289;28;45344;-68
2022/07/29 11:18:19;;;;;;;;;6.00;5.50;;;;;26.47;33.26;101226.13;5013007;28;46465;-69
2022/07/29 11:20:47;;;;;;;;;5.50;3.25;;;;;26.50;33.34;101223.09;5019260;28;45312;-69
2022/07/29 11:23:24;;;;;;;;;3.00;2.25;;;;;26.53;33.43;101214.56;5019313;28;45384;-69
2022/07/29 11:26:21;;;;;;;;;4.00;4.00;;;;;26.55;33.21;101229.00;5018358;28;45554;-69
2022/07/29 11:29:27;;;;;;;;;5.00;4.25;;;;;26.58;33.10;101236.91;5017287;28;46445;-69
2022/07/29 11:32:07;;;;;;;;;4.25;3.75;;;;;26.61;33.43;101236.63;4996754;28;45394;-69
2022/07/29 11:34:33;;;;;;;;;6.00;4.00;;;;;26.62;33.23;101224.69;5016747;28;45322;-69
2022/07/29 11:37:10;;;;;;;;;4.00;4.00;;;;;26.68;33.20;101224.16;5018872;28;45182;-69
2022/07/29 11:40:06;;;;;;;;;3.50;3.50;;;;;26.76;33.26;101238.00;5018990;28;46152;-69
2022/07/29 11:42:32;;;;;;;;;5.75;4.75;;;;;26.80;33.26;101235.84;5007801;28;45376;-69